Time;durP1;ratioP1;P1;durP2;ratioP2;P2;SDS_P1;SDS_P2;PMS_P1;PMS_P2;Temp;Humidity;BMP_temperature;BMP_pressure;BME280_temperature;BME280_humidity;BME280_pressure;Samples;Min_cycle;Max_cycle;Signal;HPM_P1;HPM_P2
2023/09/22 00:00:10;;;;;;;3.70;1.85;;;17.00;99.90;;;17.50;73.15;98841.84;4921590;29;20055;-88
2023/09/22 00:02:39;;;;;;;5.07;1.90;;;17.00;99.90;;;17.38;73.99;98847.72;4905157;29;20048;-88
2023/09/22 00:05:12;;;;;;;6.90;1.95;;;16.90;99.90;;;17.45;73.86;98847.31;4920071;29;20040;-88
2023/09/22 00:07:43;;;;;;;3.90;1.90;;;16.90;99.90;;;17.46;73.74;98848.91;4903699;29;20119;-88
2023/09/22 00:10:13;;;;;;;5.75;2.00;;;17.00;99.90;;;17.40;73.83;98858.19;4920271;29;20052;-88
2023/09/22 00:12:42;;;;;;;4.35;1.50;;;16.90;99.90;;;17.39;73.93;98856.59;4919786;29;20051;-88
2023/09/22 00:15:12;;;;;;;5.38;1.70;;;16.90;99.90;;;17.42;73.82;98862.22;4918767;29;20182;-88
2023/09/22 00:17:40;;;;;;;9.15;1.73;;;16.90;99.90;;;17.42;73.91;98867.59;4902463;29;20052;-88
2023/09/22 00:20:14;;;;;;;6.38;1.80;;;16.90;99.90;;;17.40;73.71;98850.91;4902137;29;20058;-87
2023/09/22 00:22:54;;;;;;;6.80;1.60;;;16.90;99.90;;;17.45;73.77;98864.28;4886730;29;20052;-88
2023/09/22 00:25:23;;;;;;;3.50;1.60;;;16.90;99.90;;;17.46;73.49;98860.50;4888429;29;20055;-88
2023/09/22 00:27:52;;;;;;;3.58;1.48;;;17.00;99.90;;;17.39;74.12;98862.78;4918787;29;20510;-88
2023/09/22 00:30:21;;;;;;;4.03;1.98;;;16.90;99.90;;;17.33;74.08;98865.88;4919230;29;20052;-88
2023/09/22 00:32:52;;;;;;;5.07;1.92;;;16.90;99.90;;;17.29;73.97;98868.34;4886874;29;20084;-88
2023/09/22 00:35:20;;;;;;;5.85;2.22;;;16.80;99.90;;;17.20;74.03;98876.31;4903195;29;20127;-88
2023/09/22 00:37:53;;;;;;;5.07;2.20;;;16.80;99.90;;;17.20;74.18;98879.00;4901884;29;20076;-88
2023/09/22 00:40:21;;;;;;;5.90;2.10;;;16.80;99.90;;;17.24;74.13;98882.72;4902458;29;20506;-88
2023/09/22 00:43:05;;;;;;;4.95;2.10;;;16.80;99.90;;;17.21;74.41;98882.47;4901874;29;20056;-88
2023/09/22 00:45:37;;;;;;;4.82;2.22;;;16.80;99.90;;;17.21;74.21;98885.97;4892157;29;20493;-88
2023/09/22 00:48:06;;;;;;;4.00;2.10;;;16.80;99.90;;;17.23;73.85;98889.19;4887186;29;20044;-88
2023/09/22 00:50:34;;;;;;;7.00;2.50;;;16.80;99.90;;;17.23;73.73;98886.50;4886362;29;20163;-88
2023/09/22 00:53:04;;;;;;;4.30;1.95;;;16.80;99.90;;;17.20;73.99;98887.06;4902214;29;20047;-88
2023/09/22 00:55:33;;;;;;;3.55;2.00;;;16.80;99.90;;;17.02;74.29;98895.16;4902274;29;20052;-88
2023/09/22 00:58:01;;;;;;;4.32;2.20;;;16.70;99.90;;;17.07;74.00;98895.91;4918449;29;20052;-88
2023/09/22 01:00:30;;;;;;;5.60;2.25;;;16.70;99.90;;;17.14;74.01;98899.03;4901459;29;20083;-88
2023/09/22 01:02:59;;;;;;;7.00;2.35;;;16.70;99.90;;;17.07;73.71;98901.28;4886672;29;20055;-88
2023/09/22 01:05:28;;;;;;;4.95;2.20;;;16.60;99.90;;;17.11;73.80;98898.81;4886511;29;20050;-88
2023/09/22 01:07:56;;;;;;;4.50;2.00;;;16.60;99.90;;;17.14;73.85;98898.22;4887182;29;20048;-88
2023/09/22 01:10:35;;;;;;;3.65;2.03;;;16.60;99.90;;;17.17;73.72;98900.31;4887046;29;20509;-88
2023/09/22 01:13:04;;;;;;;4.72;1.75;;;16.70;99.90;;;17.20;73.27;98894.38;4917931;29;20048;-88
2023/09/22 01:15:36;;;;;;;8.38;1.92;;;16.70;99.90;;;17.17;72.92;98898.44;4918333;29;20071;-88
2023/09/22 01:18:05;;;;;;;5.95;2.38;;;16.60;99.90;;;17.14;72.51;98901.72;4902036;29;20133;-88
2023/09/22 01:20:33;;;;;;;3.17;1.90;;;16.60;99.90;;;17.14;72.27;98914.41;4871162;29;20048;-88
2023/09/22 01:23:03;;;;;;;6.38;2.13;;;16.60;99.90;;;17.14;72.17;98919.78;4918834;29;20047;-88
2023/09/22 01:25:31;;;;;;;5.38;2.30;;;16.60;99.90;;;17.10;71.83;98924.94;4901960;29;20521;-88
2023/09/22 01:27:58;;;;;;;4.65;1.90;;;16.60;99.90;;;17.09;71.70;98923.34;4902163;29;20048;-88
2023/09/22 01:30:27;;;;;;;5.55;1.88;;;16.50;99.90;;;17.11;71.82;98923.84;4901967;29;20593;-88
2023/09/22 01:32:58;;;;;;;5.35;1.90;;;16.50;99.90;;;17.10;72.28;98924.94;4886750;29;20056;-88
2023/09/22 01:35:26;;;;;;;4.93;2.20;;;16.50;99.90;;;17.06;72.14;98921.22;4901513;29;20048;-88
2023/09/22 01:38:09;;;;;;;5.43;1.88;;;16.50;99.90;;;17.05;72.00;98925.03;4901060;29;20048;-88
2023/09/22 01:40:41;;;;;;;6.15;2.10;;;16.50;99.90;;;17.04;72.41;98930.72;4885263;29;20059;-88
2023/09/22 01:43:10;;;;;;;4.68;1.77;;;16.50;99.90;;;17.05;72.20;98925.03;4916925;29;20054;-88
2023/09/22 01:45:40;;;;;;;5.07;1.90;;;16.50;99.90;;;17.07;72.15;98933.59;4917840;29;20577;-88
2023/09/22 01:48:10;;;;;;;4.85;2.10;;;16.50;99.90;;;17.08;72.65;98929.84;4885907;29;20052;-88
2023/09/22 01:50:40;;;;;;;6.95;2.30;;;16.50;99.90;;;17.07;72.04;98930.91;4901366;29;20055;-88
2023/09/22 01:53:10;;;;;;;5.53;2.10;;;16.50;99.90;;;17.07;72.28;98932.81;4901518;29;20454;-88
2023/09/22 01:55:40;;;;;;;5.43;2.25;;;16.50;99.90;;;17.04;72.26;98936.09;4916891;29;20473;-88
2023/09/22 01:58:08;;;;;;;6.00;1.80;;;16.50;99.90;;;17.03;72.00;98939.88;4901040;29;20048;-88
2023/09/22 02:00:37;;;;;;;5.50;1.80;;;16.50;99.90;;;16.96;71.42;98946.41;4917144;29;20573;-88
2023/09/22 02:03:10;;;;;;;4.63;1.98;;;16.50;99.90;;;16.98;71.99;98943.44;4917106;29;20048;-88
2023/09/22 02:05:38;;;;;;;4.50;1.88;;;16.50;99.90;;;16.98;72.04;98936.19;4902269;29;20048;-88
2023/09/22 02:08:08;;;;;;;7.95;2.00;;;16.50;99.90;;;16.99;71.92;98950.44;4917897;29;20494;-88
2023/09/22 02:10:36;;;;;;;4.63;1.80;;;16.40;99.90;;;16.96;71.77;98951.81;4901535;29;20421;-88
2023/09/22 02:13:07;;;;;;;5.10;1.77;;;16.40;99.90;;;16.95;71.74;98957.50;4885879;29;20060;-88
2023/09/22 02:15:35;;;;;;;;;;;16.40;99.90;;;16.89;70.97;98966.75;4918495;29;20053;-88
2023/09/22 02:18:04;;;;;;;5.88;1.80;;;16.40;99.90;;;16.88;71.59;98965.91;4917878;29;19923;-88
2023/09/22 02:20:32;;;;;;;5.80;1.67;;;16.30;99.90;;;16.83;71.65;98962.50;4886242;29;20509;-88
2023/09/22 02:23:01;;;;;;;5.72;1.60;;;16.30;99.90;;;16.79;71.83;98966.84;4901343;29;20091;-88
2023/09/22 02:25:31;;;;;;;5.07;1.85;;;16.30;99.90;;;16.85;72.34;98966.50;4916703;29;20045;-88
2023/09/22 02:27:59;;;;;;;3.78;1.90;;;16.30;99.90;;;16.86;72.10;98960.03;4916557;29;20127;-88
2023/09/22 02:30:29;;;;;;;5.13;1.92;;;16.30;99.90;;;16.85;72.08;98958.44;4870539;29;20055;-88
2023/09/22 02:32:57;;;;;;;4.90;1.80;;;16.30;99.90;;;16.87;71.91;98963.53;4916902;29;20052;-88
2023/09/22 02:35:24;;;;;;;4.95;2.00;;;16.30;99.90;;;16.88;72.18;98963.22;4901043;29;20056;-88
2023/09/22 02:37:57;;;;;;;4.30;2.10;;;16.30;99.90;;;16.90;72.33;98963.75;4869488;29;20132;-88
2023/09/22 02:40:24;;;;;;;8.07;2.03;;;16.30;99.90;;;16.89;71.69;98961.34;4900768;29;20048;-88
2023/09/22 02:42:52;;;;;;;6.15;2.22;;;16.30;99.90;;;16.91;72.24;98964.53;4916606;29;20150;-88
2023/09/22 02:45:20;;;;;;;5.82;1.92;;;16.30;99.90;;;16.88;72.24;98963.22;4886466;29;20040;-88
2023/09/22 02:47:53;;;;;;;5.75;2.40;;;16.30;99.90;;;16.88;71.91;98957.03;4889963;29;20048;-88
2023/09/22 02:50:21;;;;;;;5.20;2.03;;;16.30;99.90;;;16.86;71.86;98959.22;4921300;29;20422;-88
2023/09/22 02:52:48;;;;;;;5.75;2.10;;;16.30;99.90;;;16.84;71.54;98962.22;4904668;29;20051;-88
2023/09/22 02:55:16;;;;;;;4.80;2.17;;;16.30;99.90;;;16.81;71.69;98953.91;4920034;29;20105;-88
2023/09/22 02:57:47;;;;;;;9.15;2.15;;;16.20;99.90;;;16.80;71.34;98963.88;4903848;29;20517;-88
2023/09/22 03:00:17;;;;;;;4.07;2.00;;;16.20;99.90;;;16.77;70.99;98956.38;4904394;29;20103;-88
2023/09/22 03:02:48;;;;;;;6.40;2.40;;;16.10;99.90;;;16.74;70.98;98965.03;4890371;29;20056;-88
2023/09/22 03:05:18;;;;;;;7.32;1.98;;;16.20;99.90;;;16.69;70.92;98955.09;4905524;29;20127;-88
2023/09/22 03:07:51;;;;;;;4.70;2.08;;;16.10;99.90;;;16.67;70.67;98959.16;4920433;29;20072;-88
2023/09/22 03:10:20;;;;;;;5.55;2.20;;;16.10;99.90;;;16.66;70.36;98962.94;4904248;29;20128;-88
2023/09/22 03:12:52;;;;;;;7.45;2.05;;;16.00;99.90;;;16.65;70.46;98967.53;4904299;29;20095;-88
2023/09/22 03:15:23;;;;;;;3.85;1.73;;;16.00;99.90;;;16.62;70.23;98970.00;4903596;29;20104;-88
2023/09/22 03:17:53;;;;;;;3.33;1.95;;;16.00;99.90;;;16.58;70.17;98966.28;4903808;29;20044;-89
2023/09/22 03:20:22;;;;;;;3.85;1.75;;;15.90;99.90;;;16.55;70.07;98966.88;4903422;29;20059;-88
2023/09/22 03:22:50;;;;;;;4.47;2.00;;;15.90;99.90;;;16.54;69.91;98962.53;4919011;29;20048;-88
2023/09/22 03:25:19;;;;;;;4.55;1.95;;;15.90;99.90;;;16.53;69.84;98963.66;4919026;29;20044;-88
2023/09/22 03:27:47;;;;;;;5.75;2.13;;;15.90;99.90;;;16.50;69.71;98956.97;4902608;29;20060;-88
2023/09/22 03:30:24;;;;;;;3.90;1.90;;;15.80;99.90;;;16.48;69.68;98957.22;4919599;29;20498;-88
2023/09/22 03:32:53;;;;;;;7.18;2.05;;;15.80;99.90;;;16.46;69.34;98948.66;4918495;29;20054;-88
2023/09/22 03:35:22;;;;;;;4.07;2.13;;;15.80;99.90;;;16.47;69.37;98952.13;4902598;29;20463;-88
2023/09/22 03:37:52;;;;;;;5.15;1.92;;;15.80;99.90;;;16.43;69.54;98946.53;4902160;29;20440;-88
2023/09/22 03:40:30;;;;;;;6.03;2.20;;;15.80;99.90;;;16.43;69.55;98951.09;4902891;29;20498;-88
2023/09/22 03:42:59;;;;;;;4.35;2.15;;;15.80;99.90;;;16.42;69.64;98950.31;4904469;29;20104;-88
2023/09/22 03:45:28;;;;;;;5.57;2.15;;;15.80;99.90;;;16.43;69.70;98951.09;4918925;29;20508;-88
2023/09/22 03:47:56;;;;;;;9.13;2.33;;;15.70;99.90;;;16.41;69.81;98951.41;4902762;29;20051;-88
2023/09/22 03:50:27;;;;;;;5.10;2.20;;;15.70;99.90;;;16.40;69.87;98943.63;4918715;29;20056;-88
2023/09/22 03:52:57;;;;;;;7.10;2.05;;;15.70;99.90;;;16.39;69.92;98944.69;4887376;29;20060;-88
2023/09/22 03:55:25;;;;;;;8.00;2.45;;;15.70;99.90;;;16.40;70.44;98949.81;4918852;29;20221;-88
2023/09/22 03:57:53;;;;;;;5.68;1.90;;;15.70;99.90;;;16.38;70.52;98949.28;4902504;29;20048;-88
2023/09/22 04:00:28;;;;;;;5.32;2.00;;;15.80;99.90;;;16.39;70.75;98950.88;4902576;29;20418;-88
2023/09/22 04:02:56;;;;;;;4.78;2.10;;;15.70;99.90;;;16.40;70.68;98947.13;4903645;29;20119;-88
2023/09/22 04:05:26;;;;;;;5.18;2.00;;;15.80;99.90;;;16.39;70.68;98945.50;4919183;29;20099;-87
2023/09/22 04:08:07;;;;;;;6.85;1.95;;;15.80;99.90;;;16.39;70.64;98942.78;4918393;29;20123;-88
2023/09/22 04:10:37;;;;;;;5.53;2.20;;;15.80;99.90;;;16.39;70.57;98945.50;4902494;29;20123;-88
2023/09/22 04:13:06;;;;;;;5.72;1.88;;;15.80;99.90;;;16.38;70.67;98954.66;4919888;29;20139;-87
2023/09/22 04:15:35;;;;;;;4.10;1.90;;;15.80;99.90;;;16.37;70.66;98952.25;4886899;29;20055;-87
2023/09/22 04:18:04;;;;;;;11.10;2.10;;;15.80;99.90;;;16.39;70.66;98948.19;4919661;29;20052;-87
2023/09/22 04:20:37;;;;;;;6.35;1.98;;;15.80;99.90;;;16.37;70.81;98947.69;4902528;29;20053;-87
2023/09/22 04:23:08;;;;;;;6.90;1.83;;;15.80;99.90;;;16.38;70.74;98951.16;4903176;29;20505;-88
2023/09/22 04:25:38;;;;;;;4.32;1.73;;;15.80;99.90;;;16.37;70.41;98960.34;4919458;29;20051;-88
2023/09/22 04:28:09;;;;;;;6.22;2.05;;;15.70;99.90;;;16.35;70.78;98957.94;4920083;29;20533;-87
2023/09/22 04:30:42;;;;;;;4.45;1.77;;;15.80;99.90;;;16.36;70.85;98956.84;4902211;29;20052;-87
2023/09/22 04:33:12;;;;;;;6.30;1.88;;;15.80;99.90;;;16.39;70.50;98952.75;4902388;29;20052;-88
2023/09/22 04:35:41;;;;;;;5.13;1.98;;;15.80;99.90;;;16.39;70.34;98956.25;4902158;29;20062;-88
2023/09/22 04:38:10;;;;;;;6.78;1.73;;;15.80;99.90;;;16.38;70.55;98960.03;4902307;29;20044;-87
2023/09/22 04:40:40;;;;;;;3.72;1.60;;;15.80;99.90;;;16.37;70.62;98971.91;4917845;29;20047;-87
2023/09/22 04:43:11;;;;;;;6.70;1.60;;;15.80;99.90;;;16.38;70.63;98978.06;4902514;29;20502;-88
2023/09/22 04:45:41;;;;;;;8.73;1.60;;;15.80;99.90;;;16.37;70.79;98979.16;4904255;29;20040;-87
2023/09/22 04:48:10;;;;;;;3.77;1.50;;;15.70;99.90;;;16.32;70.72;98979.22;4902725;29;20051;-87
2023/09/22 04:50:39;;;;;;;5.80;1.80;;;15.70;99.90;;;16.31;70.57;98996.47;4919925;29;20075;-87
2023/09/22 04:53:16;;;;;;;8.02;1.58;;;15.70;99.90;;;16.23;70.38;99005.94;4920586;29;20508;-88
2023/09/22 04:55:48;;;;;;;3.40;1.73;;;15.60;99.90;;;16.27;70.86;99014.25;4888707;29;20454;-88
2023/09/22 04:58:16;;;;;;;5.80;1.85;;;15.70;99.90;;;16.29;70.25;99012.88;4905709;29;20074;-87
2023/09/22 05:00:54;;;;;;;4.05;1.50;;;15.70;99.90;;;16.28;69.60;99010.47;4922115;29;20066;-88
2023/09/22 05:03:24;;;;;;;6.53;1.90;;;15.70;99.90;;;16.20;70.02;99004.63;4892131;29;20100;-87
2023/09/22 05:05:53;;;;;;;5.83;1.70;;;15.60;99.90;;;16.22;70.27;99001.66;4920272;29;20052;-88
2023/09/22 05:08:22;;;;;;;5.38;1.88;;;15.70;99.90;;;16.23;70.33;98995.19;4918239;29;20056;-88
2023/09/22 05:10:51;;;;;;;4.95;1.60;;;15.70;99.90;;;16.21;70.24;98991.97;4901667;29;20067;-88
2023/09/22 05:13:18;;;;;;;4.20;1.30;;;15.60;99.90;;;16.16;69.67;98986.66;4886206;29;20104;-88
2023/09/22 05:15:48;;;;;;;5.20;1.60;;;15.60;99.90;;;16.16;70.24;98997.41;4903570;29;20095;-87
2023/09/22 05:18:15;;;;;;;9.00;1.60;;;15.60;99.90;;;16.15;69.69;99001.16;4902551;29;20048;-88
2023/09/22 05:20:50;;;;;;;5.90;1.60;;;15.60;99.90;;;16.15;70.14;98999.31;4918994;29;20111;-88
2023/09/22 05:23:18;;;;;;;4.60;1.60;;;15.60;99.90;;;16.14;70.16;99002.25;4902252;29;20083;-87
2023/09/22 05:25:50;;;;;;;5.68;1.70;;;15.60;99.90;;;16.16;69.90;99008.97;4918613;29;20048;-87
2023/09/22 05:28:17;;;;;;;5.57;1.80;;;15.60;99.90;;;16.15;70.05;99006.53;4901938;29;20089;-86
2023/09/22 05:30:46;;;;;;;4.82;1.40;;;15.60;99.90;;;16.18;70.22;99011.38;4900831;29;20052;-87
2023/09/22 05:33:16;;;;;;;7.20;2.05;;;15.60;99.90;;;16.15;69.60;99010.06;4900313;29;20494;-88
2023/09/22 05:35:47;;;;;;;7.53;1.60;;;15.60;99.90;;;16.14;69.57;99005.75;4916934;29;20048;-88
2023/09/22 05:38:16;;;;;;;5.45;1.55;;;15.60;99.90;;;16.15;69.83;98990.41;4916895;29;20091;-88
2023/09/22 05:40:44;;;;;;;9.73;1.98;;;15.60;99.90;;;16.11;69.89;98989.41;4915995;29;20413;-87
2023/09/22 05:43:14;;;;;;;6.32;1.80;;;15.50;99.90;;;16.09;69.83;98997.72;4899929;29;20134;-88
2023/09/22 05:45:45;;;;;;;6.32;2.40;;;15.50;99.90;;;16.06;70.11;98989.44;4916327;29;20044;-87
2023/09/22 05:48:13;;;;;;;6.50;1.80;;;15.50;99.90;;;16.08;69.94;98998.03;4916474;29;20052;-86
2023/09/22 05:50:41;;;;;;;5.93;1.70;;;15.50;99.90;;;16.10;69.60;98998.53;4915427;29;20075;-87
2023/09/22 05:53:09;;;;;;;4.75;1.63;;;15.50;99.90;;;16.06;69.50;98997.53;4915458;29;20078;-88
2023/09/22 05:55:38;;;;;;;7.32;1.75;;;15.50;99.90;;;16.09;69.80;98996.94;4899302;29;20048;-87
2023/09/22 05:58:08;;;;;;;5.97;1.63;;;15.60;99.90;;;16.07;69.57;99007.19;4899386;29;20282;-87
2023/09/22 06:00:44;;;;;;;8.13;1.80;;;15.50;99.90;;;16.03;69.48;99009.63;4916664;29;20048;-87
2023/09/22 06:03:12;;;;;;;5.82;1.58;;;15.50;99.90;;;16.03;68.80;99019.59;4900200;29;20059;-87
2023/09/22 06:05:42;;;;;;;6.53;2.35;;;15.50;99.90;;;16.01;69.62;99016.38;4899958;29;20055;-86
2023/09/22 06:08:09;;;;;;;3.63;1.70;;;15.50;99.90;;;15.93;69.34;99021.28;4900473;29;20525;-86
2023/09/22 06:10:38;;;;;;;7.47;1.90;;;15.40;99.90;;;15.95;70.00;99021.78;4854807;29;1369417;-87
2023/09/22 06:13:06;;;;;;;4.75;2.13;;;15.50;99.90;;;15.98;69.96;99016.94;4900805;29;20055;-87
2023/09/22 06:15:33;;;;;;;6.07;2.25;;;15.40;99.90;;;15.98;70.12;99025.00;4916228;29;20048;-87
2023/09/22 06:18:04;;;;;;;6.18;2.03;;;15.50;99.90;;;16.00;69.66;99012.06;4917045;29;20529;-87
2023/09/22 06:20:32;;;;;;;5.57;1.90;;;15.50;99.90;;;16.04;69.62;99005.03;4902174;29;20044;-87
2023/09/22 06:22:59;;;;;;;9.85;2.00;;;15.50;99.90;;;16.08;70.34;99008.78;4904003;29;20059;-86
2023/09/22 06:25:28;;;;;;;6.93;1.73;;;15.60;99.90;;;16.10;70.22;99014.66;4920262;29;20424;-87
2023/09/22 06:27:56;;;;;;;5.93;1.80;;;15.60;99.90;;;15.95;68.35;99026.34;4919400;29;20143;-87
2023/09/22 06:30:23;;;;;;;4.95;1.75;;;15.50;99.90;;;15.88;69.80;99028.59;4888115;29;20079;-87
2023/09/22 06:32:54;;;;;;;7.10;1.80;;;15.40;99.90;;;15.95;70.08;99034.44;4888233;29;20502;-87
2023/09/22 06:35:23;;;;;;;5.95;1.95;;;15.50;99.90;;;16.00;70.04;99042.44;4913089;29;20494;-87
2023/09/22 06:37:53;;;;;;;5.15;1.88;;;15.60;99.90;;;16.04;70.04;99048.06;4888913;29;20052;-87
2023/09/22 06:40:20;;;;;;;9.65;2.08;;;15.60;99.90;;;16.04;69.56;99048.06;4920958;29;20055;-88
2023/09/22 06:42:48;;;;;;;4.32;1.50;;;15.60;99.90;;;16.04;69.82;99038.13;4921957;29;20135;-87
2023/09/22 06:45:16;;;;;;;7.70;2.05;;;15.60;99.90;;;16.08;69.50;99041.06;4922074;29;20087;-88
2023/09/22 06:47:43;;;;;;;7.88;2.05;;;15.60;99.90;;;16.08;69.93;99043.75;4903337;29;20055;-87
2023/09/22 06:50:11;;;;;;;6.05;2.00;;;15.60;99.90;;;16.13;69.86;99043.69;4920649;29;20040;-87
2023/09/22 06:52:40;;;;;;;6.88;2.20;;;15.70;99.90;;;16.17;70.23;99052.81;4903671;29;20044;-87
2023/09/22 06:55:11;;;;;;;6.90;2.45;;;15.70;99.90;;;16.06;69.63;99041.34;4888333;29;20577;-87
2023/09/22 06:57:40;;;;;;;7.35;2.05;;;15.70;99.90;;;16.14;69.70;99050.69;4888642;29;20052;-87
2023/09/22 07:00:16;;;;;;;5.45;2.10;;;15.70;99.90;;;16.19;69.23;99043.34;4920698;29;20048;-87
2023/09/22 07:02:46;;;;;;;9.55;2.10;;;15.80;99.90;;;16.23;69.45;99039.03;4905202;29;20060;-87
2023/09/22 07:05:14;;;;;;;6.97;1.80;;;15.90;99.90;;;16.24;68.20;99034.44;4902896;29;20082;-87
2023/09/22 07:07:44;;;;;;;5.60;1.90;;;15.90;99.90;;;16.25;70.21;99044.13;4903413;29;20379;-87
2023/09/22 07:10:13;;;;;;;6.57;2.00;;;15.90;99.90;;;16.35;69.97;99044.03;4902999;29;20052;-87
2023/09/22 07:12:41;;;;;;;5.53;1.58;;;16.00;99.90;;;16.20;69.43;99057.59;4921392;29;20050;-87
2023/09/22 07:15:11;;;;;;;3.53;1.60;;;16.00;99.90;;;16.31;69.47;99055.66;4920358;29;20055;-87
2023/09/22 07:17:41;;;;;;;6.60;1.98;;;16.00;99.90;;;16.28;70.05;99070.47;4903231;29;20056;-87
2023/09/22 07:20:13;;;;;;;5.10;1.77;;;16.00;99.90;;;16.37;70.34;99063.38;4919671;29;20080;-87
2023/09/22 07:22:42;;;;;;;7.78;1.98;;;16.10;99.90;;;16.41;69.89;99075.19;4920227;29;20070;-87
2023/09/22 07:25:11;;;;;;;6.50;1.73;;;16.20;99.90;;;16.41;69.03;99080.56;4903189;29;20044;-88
2023/09/22 07:27:40;;;;;;;5.53;1.80;;;16.20;99.90;;;16.42;70.04;99087.56;4902759;29;20048;-88
2023/09/22 07:30:10;;;;;;;4.38;1.73;;;16.20;99.90;;;16.47;70.13;99087.50;4903201;29;20103;-88
2023/09/22 07:32:39;;;;;;;5.55;1.58;;;16.20;99.90;;;16.48;70.03;99097.19;4919639;29;20040;-88
2023/09/22 07:35:08;;;;;;;6.00;2.00;;;16.20;99.90;;;16.37;69.49;99106.44;4919733;29;20115;-88
2023/09/22 07:37:36;;;;;;;7.70;1.60;;;16.20;99.90;;;16.38;70.18;99109.94;4888465;29;20131;-88
2023/09/22 07:40:08;;;;;;;6.93;1.70;;;16.20;99.90;;;16.38;69.39;99105.34;4920301;29;20099;-89
2023/09/22 07:42:39;;;;;;;5.40;1.88;;;16.20;99.90;;;16.36;69.16;99104.03;4919681;29;20048;-88
2023/09/22 07:45:08;;;;;;;4.22;1.83;;;16.20;99.90;;;16.48;69.40;99096.38;4872318;29;20052;-88
2023/09/22 07:47:37;;;;;;;6.45;1.70;;;16.30;99.90;;;16.53;70.08;99100.91;4918135;29;20048;-87
2023/09/22 07:50:06;;;;;;;6.75;1.73;;;16.30;99.90;;;16.48;69.53;99110.63;4903156;29;20478;-87
2023/09/22 07:52:34;;;;;;;6.95;1.80;;;16.40;99.90;;;16.53;69.33;99115.16;4918391;29;20082;-87
2023/09/22 07:55:02;;;;;;;5.72;1.60;;;16.40;99.90;;;16.57;68.76;99110.03;4903045;29;20052;-87
2023/09/22 07:57:31;;;;;;;5.75;1.80;;;16.40;99.90;;;16.49;69.15;99108.75;4918385;29;20111;-87
2023/09/22 08:00:00;;;;;;;6.78;1.52;;;16.40;99.90;;;16.58;68.86;99114.31;4887358;29;20131;-87
2023/09/22 08:02:28;;;;;;;6.63;1.65;;;16.40;99.90;;;16.50;68.74;99107.69;4902301;29;20048;-87
2023/09/22 08:04:58;;;;;;;5.32;1.42;;;16.40;99.90;;;16.49;69.15;99097.97;4919517;29;20390;-87
2023/09/22 08:07:27;;;;;;;5.03;1.73;;;16.40;99.90;;;16.58;69.76;99111.63;4887050;29;20055;-87
2023/09/22 08:09:58;;;;;;;5.25;1.42;;;16.50;99.90;;;16.65;68.26;99106.72;4918701;29;20148;-87
2023/09/22 08:12:28;;;;;;;5.22;1.77;;;16.60;99.90;;;16.69;69.67;99111.25;4902286;29;20063;-87
2023/09/22 08:14:58;;;;;;;4.85;1.42;;;16.60;99.90;;;16.67;69.55;99120.69;4917768;29;20056;-87
2023/09/22 08:17:27;;;;;;;4.65;1.60;;;16.60;99.90;;;16.66;68.40;99114.50;4902438;29;20131;-87
2023/09/22 08:19:56;;;;;;;4.47;1.35;;;16.70;99.90;;;16.68;68.39;99112.31;4902043;29;20448;-87
2023/09/22 08:22:25;;;;;;;6.47;1.60;;;16.70;99.90;;;16.76;69.24;99118.22;4902329;29;20052;-87
2023/09/22 08:24:52;;;;;;;6.13;1.60;;;16.70;99.90;;;16.76;68.51;99119.00;4886430;29;20103;-87
2023/09/22 08:27:22;;;;;;;4.97;1.40;;;16.80;99.90;;;16.79;68.77;99140.00;4917522;29;20068;-87
2023/09/22 08:29:50;;;;;;;5.00;1.42;;;16.80;99.90;;;16.83;68.77;99129.44;4918352;29;20103;-87
2023/09/22 08:32:18;;;;;;;4.00;1.35;;;16.90;99.90;;;16.88;68.92;99127.50;4901868;29;20104;-87
2023/09/22 08:34:47;;;;;;;3.90;1.70;;;17.00;99.90;;;16.84;68.09;99137.25;4887602;29;20056;-86
2023/09/22 08:37:15;;;;;;;3.97;1.50;;;16.80;99.90;;;16.84;68.39;99131.88;4919181;29;20417;-86
2023/09/22 08:39:44;;;;;;;4.35;1.42;;;16.90;99.90;;;17.00;69.46;99124.41;4919672;29;20123;-86
2023/09/22 08:42:12;;;;;;;5.38;1.55;;;17.00;99.90;;;17.11;69.26;99131.28;4918470;29;20075;-87
2023/09/22 08:44:41;;;;;;;8.43;1.67;;;17.20;99.90;;;17.14;68.89;99132.63;4885727;29;20054;-87
2023/09/22 08:47:09;;;;;;;9.45;1.55;;;17.10;99.90;;;17.08;68.46;99125.66;4918117;29;20513;-86
2023/09/22 08:49:37;;;;;;;6.25;1.38;;;17.10;99.90;;;17.04;68.56;99130.03;4917226;29;20052;-86
2023/09/22 08:52:06;;;;;;;4.30;1.27;;;17.10;99.90;;;17.01;67.55;99125.22;4918067;29;20048;-86
2023/09/22 08:54:35;;;;;;;5.90;1.80;;;17.00;99.90;;;17.08;68.87;99128.34;4900786;29;20055;-87
2023/09/22 08:57:04;;;;;;;6.85;1.30;;;17.10;99.90;;;17.11;68.26;99130.50;4886185;29;20088;-89
2023/09/22 08:59:32;;;;;;;4.80;1.40;;;17.10;99.90;;;17.16;68.38;99115.06;4901029;29;20052;-87
2023/09/22 09:02:01;;;;;;;4.03;1.30;;;17.20;99.90;;;17.22;68.31;99110.41;4919427;29;20040;-87
2023/09/22 09:04:39;;;;;;;3.97;1.58;;;17.30;99.90;;;17.33;68.00;99105.72;4903742;29;20048;-87
2023/09/22 09:07:10;;;;;;;6.43;1.40;;;17.40;99.90;;;17.36;68.74;99111.31;4918030;29;20058;-87
2023/09/22 09:09:44;;;;;;;7.13;1.50;;;17.40;99.90;;;17.22;67.17;99110.41;4918889;29;20040;-87
2023/09/22 09:12:13;;;;;;;5.78;1.50;;;17.30;99.90;;;17.17;68.26;99097.81;4883302;29;20056;-87
2023/09/22 09:14:46;;;;;;;3.53;1.20;;;17.20;99.90;;;17.15;68.21;99109.97;4883628;29;20049;-87
2023/09/22 09:17:22;;;;;;;4.22;1.33;;;17.10;99.90;;;17.15;68.66;99104.59;4883794;29;20471;-87
2023/09/22 09:19:55;;;;;;;3.47;1.20;;;17.10;99.90;;;17.01;68.26;99101.78;4899973;29;20147;-87
2023/09/22 09:22:35;;;;;;;4.72;1.20;;;17.00;99.90;;;16.98;66.80;99100.47;4900788;29;20045;-87
2023/09/22 09:25:06;;;;;;;2.92;1.10;;;17.00;99.90;;;16.88;66.40;99097.88;4870303;29;20052;-87
2023/09/22 09:27:37;;;;;;;4.72;1.00;;;16.90;99.90;;;16.86;67.07;99100.06;4900739;29;20054;-87
2023/09/22 09:30:11;;;;;;;4.80;1.20;;;16.80;99.90;;;16.93;68.08;99105.91;4884259;29;20109;-87
2023/09/22 09:32:40;;;;;;;4.05;1.15;;;16.90;99.90;;;16.98;67.70;99111.25;4899192;29;20085;-87
2023/09/22 09:35:09;;;;;;;5.97;1.10;;;16.90;99.90;;;17.02;67.22;99113.34;4898747;29;20041;-87
2023/09/22 09:37:40;;;;;;;2.55;0.90;;;16.80;99.90;;;17.06;67.29;99112.50;4882574;29;20414;-87
2023/09/22 09:40:10;;;;;;;5.25;1.13;;;16.90;99.90;;;17.07;67.45;99113.28;4869417;29;20049;-87
2023/09/22 09:42:44;;;;;;;7.93;1.65;;;16.90;99.90;;;17.01;67.68;99112.56;4883920;29;20096;-87
2023/09/22 09:45:14;;;;;;;1.95;0.77;;;16.80;99.90;;;17.06;67.67;99119.78;4900707;29;20108;-87
2023/09/22 09:47:44;;;;;;;3.95;1.00;;;16.90;99.90;;;17.12;69.15;99121.31;4899019;29;20092;-87
2023/09/22 09:50:12;;;;;;;4.47;1.30;;;16.90;99.90;;;17.11;67.53;99120.50;4882910;29;20060;-87
2023/09/22 09:52:53;;;;;;;5.03;1.17;;;16.80;99.90;;;17.05;66.03;99123.56;4883377;29;20041;-87
2023/09/22 09:55:24;;;;;;;4.25;1.10;;;16.90;99.90;;;17.16;67.13;99119.66;4885927;29;20068;-88
2023/09/22 09:57:54;;;;;;;4.35;1.27;;;17.00;99.90;;;17.17;66.36;99127.44;4887085;29;20049;-88
2023/09/22 10:00:23;;;;;;;4.80;0.90;;;17.10;99.90;;;17.20;64.29;99118.78;4902626;29;20044;-87
2023/09/22 10:02:52;;;;;;;3.40;1.05;;;17.20;99.90;;;17.20;63.32;99115.28;4905024;29;20075;-88
2023/09/22 10:05:23;;;;;;;3.58;1.08;;;17.20;99.90;;;17.18;62.72;99129.06;4880908;29;20056;-88
2023/09/22 10:07:56;;;;;;;3.33;0.93;;;17.20;99.90;;;17.09;62.21;99130.78;4888118;29;20425;-88
2023/09/22 10:10:24;;;;;;;5.63;1.75;;;17.20;99.90;;;17.18;63.23;99136.34;4908844;29;20048;-88
2023/09/22 10:12:52;;;;;;;5.47;1.13;;;17.20;99.90;;;17.22;61.61;99126.56;4906089;29;20111;-88
2023/09/22 10:15:57;;;;;;;3.70;1.20;;;17.20;99.90;;;17.26;61.70;99143.78;4921637;29;20048;-88
2023/09/22 10:18:49;;;;;;;5.68;1.45;;;17.30;99.90;;;17.32;62.74;99149.91;4905498;29;20040;-88
2023/09/22 10:21:45;;;;;;;2.55;0.90;;;17.30;99.90;;;17.38;62.92;99149.56;4889825;29;20052;-88
2023/09/22 10:24:32;;;;;;;4.32;1.13;;;17.30;99.90;;;17.36;63.23;99151.75;4921690;29;20050;-88
2023/09/22 10:27:16;;;;;;;2.40;0.90;;;17.30;99.90;;;17.26;61.70;99157.25;4922092;29;20059;-87
2023/09/22 10:29:54;;;;;;;3.03;1.08;;;17.20;99.90;;;17.16;61.98;99160.06;4873623;29;20051;-88
2023/09/22 10:32:28;;;;;;;6.50;1.00;;;17.20;99.90;;;17.18;62.47;99153.31;4902747;29;20044;-88